Time;durP1;ratioP1;P1;durP2;ratioP2;P2;SDS_P1;SDS_P2;PMS_P1;PMS_P2;Temp;Humidity;BMP_temperature;BMP_pressure;BME280_temperature;BME280_humidity;BME280_pressure;Samples;Min_cycle;Max_cycle;Signal;HPM_P1;HPM_P2
2023/03/01 00:02:55;;;;;;;40.97;22.90;;;;;;;-3.55;60.97;101581.81;31143269;28;20038;-75
2023/03/01 00:17:55;;;;;;;34.05;21.35;;;;;;;-3.69;61.77;101592.63;31140289;28;20038;-76
2023/03/01 00:32:57;;;;;;;41.55;22.70;;;;;;;-3.80;61.75;101569.50;31139547;28;20066;-77
2023/03/01 00:47:57;;;;;;;35.83;19.33;;;;;;;-3.89;62.61;101542.88;31139072;28;20549;-78
2023/03/01 01:02:58;;;;;;;35.78;21.25;;;;;;;-4.09;63.03;101539.94;31138536;28;20053;-77
2023/03/01 01:17:58;;;;;;;35.80;19.52;;;;;;;-4.24;62.98;101529.94;31136364;28;20034;-76
2023/03/01 01:32:59;;;;;;;43.67;19.10;;;;;;;-4.30;63.93;101532.72;31138271;28;20430;-76
2023/03/01 01:48:14;;;;;;;41.08;21.70;;;;;;;-4.45;63.97;101508.81;31155942;28;20050;-77
2023/03/01 02:03:20;;;;;;;46.97;21.67;;;;;;;-4.57;64.40;101492.69;31154760;28;20033;-77
2023/03/01 02:18:23;;;;;;;39.55;21.85;;;;;;;-4.60;64.76;101485.81;31153308;28;20038;-78
2023/03/01 02:33:25;;;;;;;33.85;19.17;;;;;;;-4.65;64.97;101495.47;31152566;28;20042;-78
2023/03/01 02:48:26;;;;;;;37.90;19.88;;;;;;;-4.75;65.23;101502.69;31149692;28;20492;-76
2023/03/01 03:03:26;;;;;;;44.38;22.65;;;;;;;-4.85;65.83;101507.25;31149250;28;20080;-77
2023/03/01 03:18:26;;;;;;;42.35;21.35;;;;;;;-4.92;65.60;101503.13;31147732;28;20065;-78
2023/03/01 03:33:27;;;;;;;30.13;18.95;;;;;;;-5.05;66.00;101480.91;31145614;28;20112;-77
2023/03/01 03:48:27;;;;;;;32.28;18.83;;;;;;;-5.15;66.11;101481.16;31143059;28;20085;-77
2023/03/01 04:03:29;;;;;;;51.80;24.15;;;;;;;-5.23;66.55;101461.44;31141488;28;20034;-77
2023/03/01 04:18:30;;;;;;;40.33;20.75;;;;;;;-5.36;66.71;101455.69;31139628;28;20038;-76
2023/03/01 04:33:31;;;;;;;45.50;21.90;;;;;;;-5.40;67.03;101459.25;31138070;28;20042;-77
2023/03/01 04:48:32;;;;;;;41.42;20.77;;;;;;;-5.42;67.29;101445.47;31134617;28;20050;-77
2023/03/01 05:03:32;;;;;;;35.53;22.10;;;;;;;-5.50;67.52;101462.06;31135110;28;20036;-77
2023/03/01 05:18:33;;;;;;;36.10;19.27;;;;;;;-5.57;67.56;101457.91;31220801;28;20041;-73
2023/03/01 05:33:33;;;;;;;37.00;22.33;;;;;;;-5.58;68.20;101461.38;31244826;28;20057;-75
2023/03/01 05:48:34;;;;;;;64.95;22.65;;;;;;;-5.56;68.18;101459.63;31233240;28;20054;-76
2023/03/01 06:03:34;;;;;;;46.47;22.20;;;;;;;-5.20;68.89;101477.78;31224895;28;20030;-70
2023/03/01 06:18:36;;;;;;;39.28;24.25;;;;;;;-4.47;69.31;101476.78;31220922;28;20041;-77
2023/03/01 06:33:37;;;;;;;51.55;24.70;;;;;;;-3.27;69.39;101453.25;31237489;28;20068;-74
2023/03/01 06:48:37;;;;;;;45.55;25.08;;;;;;;-1.84;69.16;101449.09;31240674;28;20050;-77
2023/03/01 07:03:37;;;;;;;48.03;25.58;;;;;;;-0.84;67.39;101439.78;31149558;28;20038;-73
2023/03/01 07:18:38;;;;;;;53.55;28.63;;;;;;;0.02;67.21;101457.84;31145964;28;20030;-68
2023/03/01 07:33:38;;;;;;;54.28;26.58;;;;;;;1.92;65.26;101457.06;31143736;28;20349;-72
2023/03/01 07:48:39;;;;;;;50.58;27.48;;;;;;;3.28;62.79;101432.72;31141447;28;20078;-67
2023/03/01 08:03:40;;;;;;;55.50;29.08;;;;;;;3.67;58.63;101421.53;31139703;28;20109;-70
2023/03/01 08:18:41;;;;;;;43.03;24.10;;;;;;;5.95;56.10;101394.09;31201119;28;20394;-74
2023/03/01 08:33:42;;;;;;;37.78;21.33;;;;;;;6.33;53.09;101401.06;31271926;28;20092;-68
2023/03/01 08:48:43;;;;;;;26.92;17.70;;;;;;;9.59;51.07;101411.41;31269754;28;20061;-73
2023/03/01 09:03:43;;;;;;;36.63;18.38;;;;;;;15.27;42.26;101407.19;31267048;28;20049;-70
2023/03/01 09:18:48;;;;;;;31.05;18.73;;;;;;;26.67;24.35;101404.50;30812686;28;96611;-69
2023/03/01 09:33:51;;;;;;;21.97;15.20;;;;;;;31.69;16.26;101399.75;30739543;28;97538;-74
2023/03/01 09:48:57;;;;;;;23.53;14.80;;;;;;;34.50;12.19;101388.94;30739099;28;97243;-75
2023/03/01 10:04:12;;;;;;;23.70;16.67;;;;;;;35.07;10.85;101377.69;30723665;28;96768;-78
2023/03/01 10:19:36;;;;;;;22.23;15.93;;;;;;;36.79;9.07;101365.06;30756805;28;96785;-75
2023/03/01 10:34:36;;;;;;;22.47;15.60;;;;;;;37.31;8.44;101343.06;30750382;28;96880;-69
2023/03/01 10:49:37;;;;;;;19.75;13.98;;;;;;;39.74;7.46;101339.00;30756293;28;97249;-75
2023/03/01 11:04:37;;;;;;;15.07;12.20;;;;;;;39.74;6.86;101327.84;30656707;28;96820;-73
2023/03/01 11:19:38;;;;;;;16.08;12.82;;;;;;;41.72;6.18;101311.13;30630171;28;96729;-73
2023/03/01 11:34:44;;;;;;;18.15;12.63;;;;;;;41.86;5.91;101298.72;30618677;28;96651;-73
2023/03/01 11:50:18;;;;;;;16.03;11.17;;;;;;;40.83;5.92;101292.47;30668635;28;96994;-73
2023/03/01 12:05:45;;;;;;;15.20;8.80;;;;;;;43.83;4.57;101279.25;30685103;28;97305;-70
2023/03/01 12:21:05;;;;;;;10.00;8.57;;;;;;;43.42;4.28;101262.81;30744320;28;96759;-69
2023/03/01 12:36:39;;;;;;;18.83;12.23;;;;;;;44.27;4.40;101249.94;30736609;28;97606;-70
2023/03/01 12:51:43;;;;;;;12.53;9.07;;;;;;;43.61;4.07;101227.56;30729554;28;97069;-67
2023/03/01 13:07:02;;;;;;;9.67;6.07;;;;;;;43.68;3.42;101204.44;30722913;28;97069;-67
2023/03/01 13:22:28;;;;;;;10.80;7.67;;;;;;;41.86;4.17;101190.44;30728596;28;97377;-66
2023/03/01 13:37:37;;;;;;;8.77;7.37;;;;;;;40.35;4.53;101188.81;30739949;28;97463;-67
2023/03/01 13:52:39;;;;;;;11.47;7.03;;;;;;;38.25;5.17;101169.25;30751203;28;96831;-68
2023/03/01 14:07:41;;;;;;;13.40;9.20;;;;;;;36.58;6.26;101150.00;30751870;28;96761;-67
2023/03/01 14:22:42;;;;;;;11.37;8.20;;;;;;;34.64;6.53;101134.44;30750582;28;96673;-69
2023/03/01 14:37:43;;;;;;;12.10;9.27;;;;;;;35.01;6.32;101110.41;30747563;28;97223;-67
2023/03/01 14:52:47;;;;;;;16.10;9.35;;;;;;;32.04;8.11;101097.50;30742858;28;96657;-66
2023/03/01 15:07:48;;;;;;;14.17;11.10;;;;;;;27.91;10.59;101091.31;30742215;28;96680;-67
2023/03/01 15:22:49;;;;;;;13.60;10.60;;;;;;;25.81;11.18;101098.91;30738729;28;97076;-70
2023/03/01 15:37:49;;;;;;;13.07;10.07;;;;;;;24.09;12.01;101095.16;30659495;28;97486;-71
2023/03/01 15:52:50;;;;;;;14.25;10.48;;;;;;;19.89;13.88;101097.13;30638023;28;97317;-70
2023/03/01 16:07:51;;;;;;;18.90;10.70;;;;;;;15.27;17.89;101115.44;30771734;28;97848;-71
2023/03/01 16:22:52;;;;;;;18.27;10.57;;;;;;;10.64;21.59;101127.63;31141804;28;20034;-71
2023/03/01 16:37:53;;;;;;;19.65;10.52;;;;;;;8.09;25.12;101118.63;31130241;28;20116;-71
2023/03/01 16:52:54;;;;;;;24.58;11.40;;;;;;;6.27;28.18;101144.81;31134227;28;20158;-73
2023/03/01 17:07:56;;;;;;;20.00;11.27;;;;;;;5.04;31.04;101160.94;31130246;28;20081;-74
2023/03/01 17:22:57;;;;;;;24.65;11.63;;;;;;;4.33;32.42;101160.63;31152055;28;20394;-72
2023/03/01 17:37:57;;;;;;;35.28;13.98;;;;;;;3.62;34.21;101157.47;31123845;28;20117;-70
2023/03/01 17:52:58;;;;;;;36.00;13.75;;;;;;;2.96;36.58;101156.47;31122667;28;20088;-71
2023/03/01 18:07:58;;;;;;;33.00;15.40;;;;;;;2.54;38.58;101159.03;31121810;28;20034;-71
2023/03/01 18:22:59;;;;;;;36.72;17.17;;;;;;;2.19;39.53;101160.25;31134358;28;20042;-74
2023/03/01 18:37:59;;;;;;;46.20;21.27;;;;;;;1.75;40.68;101149.75;31138576;28;20038;-73
2023/03/01 18:53:00;;;;;;;43.20;19.00;;;;;;;1.34;41.78;101145.97;30771233;28;97026;-66
2023/03/01 19:08:00;;;;;;;39.47;21.95;;;;;;;0.92;43.18;101126.44;30611158;28;97811;-66
2023/03/01 19:23:01;;;;;;;41.08;22.35;;;;;;;0.63;44.23;101134.97;30618103;28;96977;-65
2023/03/01 19:38:01;;;;;;;40.70;20.42;;;;;;;0.36;44.94;101136.44;30603352;28;97350;-68
2023/03/01 19:53:01;;;;;;;30.80;17.80;;;;;;;0.15;45.73;101139.22;30607627;28;97266;-67
2023/03/01 20:08:03;;;;;;;40.70;21.52;;;;;;;-0.08;46.58;101143.91;30660648;28;96753;-69
2023/03/01 20:23:04;;;;;;;41.25;20.85;;;;;;;-0.39;47.99;101153.28;30661706;28;97376;-70
2023/03/01 20:38:04;;;;;;;44.72;22.23;;;;;;;-0.60;48.98;101141.25;30636550;28;97522;-69
2023/03/01 20:53:05;;;;;;;43.33;21.30;;;;;;;-0.76;48.95;101128.91;30596859;28;97322;-69
2023/03/01 21:08:05;;;;;;;39.22;19.08;;;;;;;-0.99;49.84;101131.78;30600856;28;97631;-69
2023/03/01 21:23:05;;;;;;;38.85;20.33;;;;;;;-1.24;51.29;101138.19;30599310;28;96768;-68
2023/03/01 21:38:06;;;;;;;40.83;20.23;;;;;;;-1.36;51.28;101121.28;30599440;28;96744;-70
2023/03/01 21:53:06;;;;;;;42.65;23.50;;;;;;;-1.66;52.28;101115.69;30725277;28;97133;-71
2023/03/01 22:08:07;;;;;;;47.17;22.17;;;;;;;-147.20;100.00;63046.97;31306467;28;20034;-70
2023/03/01 22:23:08;;;;;;;60.72;27.73;;;;;;;-147.20;100.00;63046.97;31238071;28;20018;-70
2023/03/01 22:38:08;;;;;;;50.03;23.92;;;;;;;-147.20;100.00;63046.97;31317695;28;20814;-71
2023/03/01 22:53:08;;;;;;;54.95;24.40;;;;;;;-147.20;100.00;63046.97;31317771;28;20173;-71
2023/03/01 23:08:09;;;;;;;48.40;23.40;;;;;;;-147.20;100.00;63046.97;31315777;28;20057;-71
2023/03/01 23:23:09;;;;;;;49.45;23.25;;;;;;;-147.20;100.00;63046.97;31315430;28;20471;-71
2023/03/01 23:38:10;;;;;;;50.03;24.92;;;;;;;-147.20;100.00;63046.97;31314093;28;20430;-71
2023/03/01 23:53:16;;;;;;;59.10;26.50;;;;;;;-147.20;100.00;63046.97;31312069;28;20502;-71
